Time;durP1;ratioP1;P1;durP2;ratioP2;P2;SDS_P1;SDS_P2;PMS_P1;PMS_P2;Temp;Humidity;BMP_temperature;BMP_pressure;BME280_temperature;BME280_humidity;BME280_pressure;Samples;Min_cycle;Max_cycle;Signal;HPM_P1;HPM_P2
2021/04/19 00:00:16;;;;;;;28.47;22.30;;;8.60;83.10;;;;;;5058855;28;20241;-81
2021/04/19 00:02:43;;;;;;;28.83;22.27;;;8.60;83.20;;;;;;5054854;28;20632;-81
2021/04/19 00:05:17;;;;;;;29.33;22.27;;;8.60;83.20;;;;;;5021677;28;20211;-81
2021/04/19 00:07:44;;;;;;;26.53;21.90;;;8.60;83.10;;;;;;5025696;28;20560;-80
2021/04/19 00:10:13;;;;;;;34.90;24.07;;;8.50;83.00;;;;;;5034527;28;20309;-81
2021/04/19 00:12:40;;;;;;;31.13;22.73;;;8.50;83.10;;;;;;5038314;28;20647;-81
2021/04/19 00:15:12;;;;;;;28.67;21.20;;;8.50;83.20;;;;;;5027808;28;20220;-81
2021/04/19 00:17:38;;;;;;;29.87;23.23;;;8.50;83.40;;;;;;5017972;28;20222;-80
2021/04/19 00:20:07;;;;;;;26.07;21.77;;;8.50;83.50;;;;;;5027048;28;20221;-81
2021/04/19 00:22:35;;;;;;;27.00;21.47;;;8.50;83.60;;;;;;5034062;28;20223;-81
2021/04/19 00:25:03;;;;;;;28.63;22.77;;;8.50;83.70;;;;;;5018578;28;20220;-81
2021/04/19 00:27:29;;;;;;;30.93;23.13;;;8.50;83.70;;;;;;5017205;28;20297;-81
2021/04/19 00:29:57;;;;;;;26.70;21.47;;;8.50;83.80;;;;;;5027193;28;20674;-81
2021/04/19 00:32:24;;;;;;;29.83;23.53;;;8.50;84.00;;;;;;5041281;28;20219;-81
2021/04/19 00:34:51;;;;;;;33.37;24.70;;;8.50;83.90;;;;;;5025108;28;20287;-81
2021/04/19 00:37:19;;;;;;;29.77;22.07;;;8.40;83.90;;;;;;5020972;28;20218;-81
2021/04/19 00:39:46;;;;;;;31.23;22.30;;;8.50;83.90;;;;;;5029377;28;20219;-80
2021/04/19 00:42:13;;;;;;;32.77;25.17;;;8.40;84.00;;;;;;5032982;28;20226;-81
2021/04/19 00:44:40;;;;;;;28.83;24.20;;;8.40;84.10;;;;;;5041532;28;20543;-81
2021/04/19 00:47:07;;;;;;;30.43;24.00;;;8.40;84.10;;;;;;5030720;28;20235;-81
2021/04/19 00:49:33;;;;;;;36.17;25.10;;;8.40;84.10;;;;;;5037809;28;20219;-81
2021/04/19 00:52:01;;;;;;;30.43;23.77;;;8.30;84.00;;;;;;5041918;28;20211;-80
2021/04/19 00:54:28;;;;;;;30.90;23.90;;;8.30;84.20;;;;;;5038880;28;20219;-81
2021/04/19 00:56:55;;;;;;;36.90;24.13;;;8.30;84.20;;;;;;5030322;28;20212;-81
2021/04/19 00:59:22;;;;;;;28.20;23.03;;;8.30;84.30;;;;;;5032884;28;20215;-81
2021/04/19 01:01:49;;;;;;;29.17;23.13;;;8.30;84.30;;;;;;5037122;28;20237;-80
2021/04/19 01:04:16;;;;;;;30.07;21.10;;;8.30;84.20;;;;;;5033838;28;20229;-80
2021/04/19 01:06:44;;;;;;;27.90;21.90;;;8.20;84.20;;;;;;5022960;28;20620;-80
2021/04/19 01:09:10;;;;;;;26.77;21.07;;;8.20;84.40;;;;;;5031759;28;20215;-81
2021/04/19 01:11:37;;;;;;;30.17;22.30;;;8.20;84.50;;;;;;5026511;28;20222;-81
2021/04/19 01:14:04;;;;;;;25.57;20.23;;;8.10;84.50;;;;;;5060935;28;20217;-81
2021/04/19 01:16:31;;;;;;;29.50;21.23;;;8.10;84.70;;;;;;5040639;28;20309;-81
2021/04/19 01:18:58;;;;;;;26.27;20.33;;;8.00;84.90;;;;;;5055525;28;20225;-81
2021/04/19 01:21:25;;;;;;;27.80;20.87;;;8.00;85.10;;;;;;5042912;28;20230;-81
2021/04/19 01:23:51;;;;;;;31.03;20.17;;;8.00;85.20;;;;;;5036379;28;20222;-81
2021/04/19 01:26:18;;;;;;;25.33;19.40;;;7.90;85.20;;;;;;5042936;28;20207;-81
2021/04/19 01:28:50;;;;;;;28.63;21.40;;;7.90;85.20;;;;;;5037047;28;20269;-81
2021/04/19 01:31:17;;;;;;;28.97;20.67;;;7.80;85.40;;;;;;5057195;28;20269;-81
2021/04/19 01:33:45;;;;;;;30.20;20.30;;;7.80;85.50;;;;;;5047668;28;20654;-81
2021/04/19 01:36:12;;;;;;;23.90;18.93;;;7.80;85.60;;;;;;5023743;28;20214;-80
2021/04/19 01:38:39;;;;;;;23.60;18.33;;;7.70;85.60;;;;;;5049339;28;20541;-81
2021/04/19 01:41:07;;;;;;;26.10;19.60;;;7.70;85.60;;;;;;5055037;28;20225;-80
2021/04/19 01:43:34;;;;;;;28.73;21.80;;;7.70;85.60;;;;;;5047637;28;20217;-81
2021/04/19 01:46:01;;;;;;;26.90;21.03;;;7.60;85.40;;;;;;5043291;28;20397;-81
2021/04/19 01:48:29;;;;;;;30.87;24.07;;;7.50;85.60;;;;;;5053221;28;20630;-81
2021/04/19 01:50:57;;;;;;;27.53;21.13;;;7.40;86.20;;;;;;5054374;28;20272;-81
2021/04/19 01:53:24;;;;;;;30.30;22.53;;;7.30;86.70;;;;;;5023518;28;20215;-81
2021/04/19 01:55:50;;;;;;;32.40;24.23;;;7.30;87.00;;;;;;5031575;28;20225;-80
2021/04/19 01:58:24;;;;;;;30.30;22.83;;;7.30;87.30;;;;;;5038184;28;20253;-81
2021/04/19 02:00:59;;;;;;;31.93;23.17;;;7.30;87.40;;;;;;5030307;28;20215;-81
2021/04/19 02:03:58;;;;;;;33.87;24.80;;;7.30;87.50;;;;;;5023500;28;20274;-80
2021/04/19 02:06:34;;;;;;;36.23;26.63;;;7.30;87.50;;;;;;5044004;28;20218;-81
2021/04/19 02:09:28;;;;;;;32.83;25.37;;;7.30;87.60;;;;;;5020485;28;20591;-80
2021/04/19 02:12:14;;;;;;;29.77;23.57;;;7.30;87.90;;;;;;4985107;28;20614;-81
2021/04/19 02:15:03;;;;;;;31.07;23.93;;;7.20;87.90;;;;;;5022108;28;20215;-81
2021/04/19 02:17:39;;;;;;;32.00;24.17;;;7.30;87.90;;;;;;5007302;28;20223;-81
2021/04/19 02:20:34;;;;;;;32.07;22.17;;;7.20;87.80;;;;;;5016374;28;20211;-81
2021/04/19 02:23:09;;;;;;;29.70;21.80;;;7.20;87.80;;;;;;5003233;28;20222;-80
2021/04/19 02:25:39;;;;;;;29.40;22.50;;;7.20;87.60;;;;;;5015822;28;20208;-81
2021/04/19 02:28:23;;;;;;;32.50;24.03;;;7.20;87.70;;;;;;5027836;28;20249;-80
2021/04/19 02:30:54;;;;;;;33.43;23.43;;;7.10;87.80;;;;;;5002646;28;20199;-81
2021/04/19 02:33:24;;;;;;;30.90;24.20;;;7.10;87.80;;;;;;5018553;28;20545;-81
2021/04/19 02:35:51;;;;;;;33.73;25.63;;;7.10;88.00;;;;;;5019449;28;20219;-81
2021/04/19 02:38:23;;;;;;;30.77;24.53;;;7.20;88.10;;;;;;5030994;28;20230;-81
2021/04/19 02:40:51;;;;;;;33.17;23.47;;;7.20;88.20;;;;;;5024760;28;20215;-81
2021/04/19 02:43:21;;;;;;;29.77;23.57;;;7.20;88.30;;;;;;5011523;28;20226;-80
2021/04/19 02:45:51;;;;;;;34.50;23.37;;;7.20;88.30;;;;;;5026935;28;20639;-81
2021/04/19 02:48:23;;;;;;;35.10;24.40;;;7.20;88.30;;;;;;5031506;28;20231;-80
2021/04/19 02:50:52;;;;;;;33.03;25.03;;;7.20;88.10;;;;;;5030849;28;20273;-80
2021/04/19 02:53:21;;;;;;;30.03;23.63;;;7.20;88.20;;;;;;5001860;28;20279;-81
2021/04/19 02:55:49;;;;;;;32.03;23.57;;;7.10;88.20;;;;;;5005415;28;20221;-80
2021/04/19 02:58:37;;;;;;;33.20;23.97;;;7.10;88.30;;;;;;5006653;28;20391;-81
2021/04/19 03:01:07;;;;;;;30.43;23.50;;;7.10;88.40;;;;;;5010485;28;20222;-81
2021/04/19 03:03:40;;;;;;;31.23;24.20;;;7.10;88.40;;;;;;5022145;28;20842;-81
2021/04/19 03:06:09;;;;;;;33.83;24.07;;;7.10;88.40;;;;;;5003800;28;20233;-81
2021/04/19 03:08:45;;;;;;;31.83;23.80;;;7.10;88.40;;;;;;5025067;28;20329;-81
2021/04/19 03:11:26;;;;;;;38.97;26.37;;;7.10;88.60;;;;;;5035612;28;20209;-80
2021/04/19 03:13:54;;;;;;;34.53;24.93;;;7.00;88.50;;;;;;5019145;28;20192;-80
2021/04/19 03:16:24;;;;;;;31.10;23.87;;;7.00;88.60;;;;;;5018002;28;20299;-81
2021/04/19 03:18:53;;;;;;;33.40;25.80;;;7.00;88.70;;;;;;5018342;28;20604;-81
2021/04/19 03:21:23;;;;;;;31.30;24.50;;;7.00;88.50;;;;;;5021927;28;20259;-81
2021/04/19 03:23:53;;;;;;;37.53;24.37;;;6.90;88.50;;;;;;5032021;28;20265;-82
2021/04/19 03:26:23;;;;;;;33.67;25.13;;;6.90;88.50;;;;;;5029877;28;20223;-81
2021/04/19 03:28:51;;;;;;;35.13;25.60;;;6.90;88.60;;;;;;5029817;28;20242;-81
2021/04/19 03:31:24;;;;;;;36.17;25.87;;;6.90;88.80;;;;;;5028902;28;20677;-80
2021/04/19 03:33:55;;;;;;;32.40;24.60;;;6.90;88.90;;;;;;5030858;28;20249;-81
2021/04/19 03:36:25;;;;;;;33.10;23.37;;;6.90;89.00;;;;;;5019506;28;20202;-81
2021/04/19 03:38:52;;;;;;;37.63;23.50;;;6.90;88.90;;;;;;5018746;28;20216;-80
2021/04/19 03:41:20;;;;;;;30.07;23.93;;;6.80;88.70;;;;;;5026507;28;20214;-81
2021/04/19 03:43:53;;;;;;;38.00;23.77;;;6.80;88.60;;;;;;5018172;28;20219;-80
2021/04/19 03:46:23;;;;;;;36.93;24.90;;;6.80;88.50;;;;;;5021570;28;20210;-80
2021/04/19 03:49:00;;;;;;;34.10;24.77;;;6.70;88.40;;;;;;5036202;28;20226;-81
2021/04/19 03:51:27;;;;;;;33.53;24.63;;;6.70;88.50;;;;;;5025204;28;20226;-81
2021/04/19 03:53:57;;;;;;;39.23;26.10;;;6.70;88.30;;;;;;5022194;28;20227;-81
2021/04/19 03:56:25;;;;;;;38.43;29.07;;;6.70;88.20;;;;;;5018475;28;20230;-81
2021/04/19 03:58:55;;;;;;;35.67;25.27;;;6.70;88.60;;;;;;5026178;28;20223;-81
2021/04/19 04:01:22;;;;;;;36.10;26.90;;;6.60;88.80;;;;;;5019858;28;20223;-81
2021/04/19 04:03:51;;;;;;;36.37;24.97;;;6.70;88.90;;;;;;5020701;28;20216;-81
2021/04/19 04:06:19;;;;;;;34.53;25.67;;;6.60;88.90;;;;;;5021955;28;20559;-81
2021/04/19 04:08:47;;;;;;;34.77;25.27;;;6.70;88.90;;;;;;5048824;28;20911;-80
2021/04/19 04:11:16;;;;;;;33.43;25.30;;;6.70;88.90;;;;;;5025555;28;20215;-80
2021/04/19 04:13:42;;;;;;;38.63;24.93;;;6.70;88.90;;;;;;5044534;28;20663;-81
2021/04/19 04:16:09;;;;;;;40.00;26.57;;;6.60;88.70;;;;;;5044211;28;20241;-80
2021/04/19 04:18:37;;;;;;;38.17;26.17;;;6.60;88.60;;;;;;5044886;28;20250;-81
2021/04/19 04:21:04;;;;;;;34.40;25.17;;;6.60;88.70;;;;;;5029994;28;20227;-83
2021/04/19 04:23:31;;;;;;;32.37;24.03;;;6.50;88.80;;;;;;5037242;28;20607;-81
2021/04/19 04:25:59;;;;;;;32.23;23.27;;;6.50;88.80;;;;;;5062037;28;20206;-81
2021/04/19 04:28:26;;;;;;;33.33;25.50;;;6.50;88.80;;;;;;5054208;28;20274;-80
2021/04/19 04:30:53;;;;;;;33.33;23.70;;;6.50;88.80;;;;;;5049813;28;20230;-81
2021/04/19 04:33:20;;;;;;;34.03;23.03;;;6.50;88.80;;;;;;5056860;28;20210;-81
2021/04/19 04:35:47;;;;;;;33.07;24.67;;;6.50;88.70;;;;;;5058982;28;20246;-81
2021/04/19 04:38:14;;;;;;;34.37;24.70;;;6.50;88.70;;;;;;5057356;28;20223;-81
2021/04/19 04:40:41;;;;;;;32.03;22.87;;;6.50;88.70;;;;;;5041730;28;20215;-81
2021/04/19 04:43:14;;;;;;;32.77;24.83;;;6.50;88.70;;;;;;5045602;28;20218;-81
2021/04/19 04:45:41;;;;;;;31.87;25.07;;;6.50;88.80;;;;;;5035069;28;20234;-81
2021/04/19 04:48:19;;;;;;;33.00;24.77;;;6.60;88.80;;;;;;5050237;28;20236;-81
2021/04/19 04:50:52;;;;;;;33.67;23.77;;;6.60;88.80;;;;;;5028150;28;20253;-80
2021/04/19 04:53:25;;;;;;;37.47;24.40;;;6.70;88.80;;;;;;5057959;28;20218;-81
2021/04/19 04:55:54;;;;;;;33.07;24.53;;;6.80;88.80;;;;;;5059384;28;20217;-81
2021/04/19 04:58:22;;;;;;;36.27;25.57;;;6.80;88.60;;;;;;5036988;28;20218;-81
2021/04/19 05:00:50;;;;;;;38.17;26.10;;;6.90;88.60;;;;;;5061069;28;20214;-81
2021/04/19 05:03:17;;;;;;;36.00;25.03;;;7.00;88.40;;;;;;5043644;28;20214;-81
2021/04/19 05:05:45;;;;;;;34.67;26.10;;;7.10;88.40;;;;;;5039343;28;20218;-81
2021/04/19 05:08:12;;;;;;;37.83;25.97;;;7.30;88.30;;;;;;5044191;28;20570;-80
2021/04/19 05:10:40;;;;;;;35.37;25.17;;;7.40;88.30;;;;;;5060257;28;20251;-80
2021/04/19 05:13:17;;;;;;;36.73;27.30;;;7.60;88.30;;;;;;5038870;28;20219;-81
2021/04/19 05:15:46;;;;;;;29.53;23.93;;;7.90;87.80;;;;;;5022615;28;20340;-81
2021/04/19 05:18:16;;;;;;;37.53;27.47;;;8.10;86.70;;;;;;5048624;28;20634;-81
2021/04/19 05:20:44;;;;;;;37.20;26.90;;;8.20;86.10;;;;;;5032720;28;20219;-82
2021/04/19 05:23:12;;;;;;;46.03;28.40;;;8.30;86.00;;;;;;5023421;28;20611;-81
2021/04/19 05:25:40;;;;;;;37.20;28.43;;;8.60;85.80;;;;;;5031237;28;20219;-81
2021/04/19 05:28:08;;;;;;;36.17;26.97;;;8.80;85.20;;;;;;5015149;28;20235;-81
2021/04/19 05:30:35;;;;;;;37.33;25.90;;;9.00;84.60;;;;;;5043151;28;20237;-80
2021/04/19 05:33:04;;;;;;;36.97;26.70;;;9.20;83.90;;;;;;5039981;28;20234;-81
2021/04/19 05:35:33;;;;;;;34.97;26.90;;;9.40;83.40;;;;;;5041082;28;20219;-80
2021/04/19 05:38:01;;;;;;;38.90;28.10;;;9.50;82.80;;;;;;5030518;28;20783;-81
2021/04/19 05:40:31;;;;;;;34.50;27.30;;;9.70;82.70;;;;;;5031287;28;20219;-81
2021/04/19 05:42:58;;;;;;;36.07;27.67;;;9.80;82.60;;;;;;5028274;28;20215;-81
2021/04/19 05:45:25;;;;;;;37.13;27.43;;;9.90;82.50;;;;;;5037912;28;20280;-81
2021/04/19 05:47:53;;;;;;;33.13;25.17;;;9.90;82.30;;;;;;5037210;28;20273;-81
2021/04/19 05:50:23;;;;;;;33.03;26.97;;;10.00;83.00;;;;;;5039423;28;20241;-81
2021/04/19 05:52:53;;;;;;;41.10;26.53;;;10.10;82.20;;;;;;5021891;28;20272;-80
2021/04/19 05:55:27;;;;;;;35.43;26.63;;;10.10;82.00;;;;;;5041491;28;20215;-81
2021/04/19 05:58:09;;;;;;;31.00;25.63;;;10.30;81.90;;;;;;5051072;28;20674;-82
2021/04/19 06:00:38;;;;;;;33.07;26.93;;;10.40;81.50;;;;;;5045666;28;20224;-81
2021/04/19 06:03:19;;;;;;;34.47;26.10;;;10.50;81.50;;;;;;5054006;28;20221;-81
2021/04/19 06:06:24;;;;;;;34.87;26.83;;;10.60;81.30;;;;;;5027852;28;20215;-79
2021/04/19 06:08:57;;;;;;;31.47;25.47;;;10.80;81.00;;;;;;5016369;28;20258;-80
2021/04/19 06:11:46;;;;;;;29.53;25.30;;;10.90;80.40;;;;;;5034385;28;20546;-80
2021/04/19 06:14:17;;;;;;;34.67;25.90;;;11.00;80.20;;;;;;5030509;28;20628;-81
2021/04/19 06:16:46;;;;;;;35.67;25.83;;;11.10;80.00;;;;;;5025845;28;20226;-81
2021/04/19 06:19:16;;;;;;;34.50;26.97;;;11.20;79.60;;;;;;5038408;28;20218;-81
2021/04/19 06:21:44;;;;;;;34.80;26.27;;;11.20;79.30;;;;;;5030581;28;20222;-80
2021/04/19 06:24:12;;;;;;;34.33;25.97;;;11.20;79.30;;;;;;5028417;28;20219;-80
2021/04/19 06:26:41;;;;;;;36.83;27.10;;;11.30;79.40;;;;;;5035123;28;20208;-80
2021/04/19 06:29:09;;;;;;;36.33;27.30;;;11.30;79.10;;;;;;5018941;28;20271;-80
2021/04/19 06:31:48;;;;;;;34.20;26.67;;;11.30;79.10;;;;;;5029248;28;20210;-81
2021/04/19 06:34:16;;;;;;;35.80;26.90;;;11.30;79.10;;;;;;5037409;28;20598;-80
2021/04/19 06:36:45;;;;;;;36.40;26.20;;;11.30;79.10;;;;;;5034446;28;20229;-80
2021/04/19 06:39:14;;;;;;;33.07;26.83;;;11.30;79.00;;;;;;5037525;28;20207;-80
2021/04/19 06:41:42;;;;;;;35.67;27.90;;;11.30;79.00;;;;;;5034786;28;20278;-80
2021/04/19 06:44:09;;;;;;;35.77;27.37;;;11.40;79.20;;;;;;5038077;28;20199;-81
2021/04/19 06:46:38;;;;;;;36.73;29.13;;;11.40;79.30;;;;;;5019817;28;20227;-81
2021/04/19 06:49:06;;;;;;;33.63;26.97;;;11.40;79.00;;;;;;5030787;28;20322;-80
2021/04/19 06:51:34;;;;;;;36.73;28.33;;;11.50;79.00;;;;;;5031150;28;20229;-80
2021/04/19 06:54:02;;;;;;;34.20;27.47;;;11.60;78.90;;;;;;5029468;28;20211;-80
2021/04/19 06:56:43;;;;;;;37.80;27.60;;;11.80;78.60;;;;;;5032289;28;20215;-80
2021/04/19 06:59:13;;;;;;;39.33;28.03;;;12.10;78.20;;;;;;5031064;28;20620;-80
2021/04/19 07:01:49;;;;;;;34.47;27.17;;;12.30;77.20;;;;;;5025400;28;20226;-80
2021/04/19 07:04:28;;;;;;;36.50;28.00;;;12.60;76.40;;;;;;5024197;28;20230;-81
2021/04/19 07:07:07;;;;;;;35.00;28.23;;;12.90;75.60;;;;;;5057417;28;20678;-81
2021/04/19 07:09:43;;;;;;;32.30;26.33;;;13.10;74.60;;;;;;5036208;28;20243;-81
2021/04/19 07:12:17;;;;;;;31.97;27.73;;;13.40;73.30;;;;;;5031041;28;20241;-81
2021/04/19 07:14:48;;;;;;;33.07;27.07;;;13.60;73.00;;;;;;5034148;28;20212;-81
2021/04/19 07:17:15;;;;;;;34.60;27.00;;;13.90;71.90;;;;;;5019703;28;20219;-80
2021/04/19 07:19:46;;;;;;;35.80;28.50;;;14.20;71.50;;;;;;5029379;28;20246;-81
2021/04/19 07:22:17;;;;;;;33.50;26.90;;;14.40;71.00;;;;;;5025880;28;20658;-81
2021/04/19 07:24:44;;;;;;;29.90;25.00;;;14.70;70.10;;;;;;5029520;28;20227;-80
2021/04/19 07:27:12;;;;;;;33.90;25.97;;;14.90;69.20;;;;;;5033642;28;20231;-82
2021/04/19 07:29:40;;;;;;;30.37;25.43;;;14.90;68.50;;;;;;5032480;28;20244;-80
2021/04/19 07:32:07;;;;;;;26.83;23.63;;;15.10;67.60;;;;;;5028118;28;20215;-80
2021/04/19 07:34:35;;;;;;;24.07;21.50;;;15.20;67.00;;;;;;5035968;28;20258;-82
2021/04/19 07:37:08;;;;;;;25.43;21.00;;;15.40;65.90;;;;;;5027129;28;20237;-81
2021/04/19 07:39:40;;;;;;;29.17;23.40;;;15.50;64.20;;;;;;5037628;28;20229;-82
2021/04/19 07:42:09;;;;;;;23.63;18.80;;;15.60;63.80;;;;;;5028628;28;20242;-80
2021/04/19 07:44:46;;;;;;;22.50;17.97;;;15.70;63.30;;;;;;5030921;28;20302;-81
2021/04/19 07:47:37;;;;;;;19.13;16.83;;;15.80;62.60;;;;;;5027271;28;20222;-81
2021/04/19 07:50:11;;;;;;;18.40;16.37;;;15.90;60.40;;;;;;5030288;28;20628;-81
2021/04/19 07:52:50;;;;;;;24.50;19.00;;;15.90;60.60;;;;;;5037116;28;20230;-81
2021/04/19 07:55:22;;;;;;;18.07;16.17;;;15.90;60.30;;;;;;5041495;28;20253;-81
2021/04/19 07:58:16;;;;;;;15.80;14.10;;;15.80;60.70;;;;;;5030526;28;20536;-81
2021/04/19 08:00:43;;;;;;;17.37;15.47;;;15.90;60.30;;;;;;5026677;28;20243;-80
2021/04/19 08:03:15;;;;;;;18.00;16.10;;;16.10;59.40;;;;;;5035805;28;20216;-82
2021/04/19 08:05:51;;;;;;;19.53;16.37;;;16.40;58.30;;;;;;5037956;28;20227;-81
2021/04/19 08:08:37;;;;;;;18.37;15.73;;;16.60;58.10;;;;;;5032890;28;20748;-81
2021/04/19 08:11:07;;;;;;;18.63;16.00;;;16.70;58.50;;;;;;5022400;28;20214;-81
2021/04/19 08:13:34;;;;;;;17.40;15.57;;;16.80;56.80;;;;;;5020930;28;20274;-81
2021/04/19 08:16:18;;;;;;;19.17;16.63;;;16.90;56.60;;;;;;5021280;28;20212;-81
2021/04/19 08:18:50;;;;;;;18.20;16.27;;;17.00;56.50;;;;;;5022620;28;20262;-81
2021/04/19 08:21:27;;;;;;;17.80;14.67;;;17.10;56.10;;;;;;5038357;28;20561;-81
2021/04/19 08:23:54;;;;;;;17.70;15.97;;;17.20;55.80;;;;;;5026264;28;20831;-81
2021/04/19 08:26:21;;;;;;;18.27;15.87;;;17.40;55.50;;;;;;5034336;28;20233;-81
2021/04/19 08:28:49;;;;;;;16.63;14.47;;;17.70;55.70;;;;;;5028042;28;20239;-81
2021/04/19 08:31:17;;;;;;;19.27;15.87;;;17.90;55.40;;;;;;5021734;28;20298;-81
2021/04/19 08:33:46;;;;;;;20.60;18.17;;;18.20;53.20;;;;;;5029962;28;20247;-82
2021/04/19 08:36:16;;;;;;;21.97;19.40;;;18.00;50.80;;;;;;5027762;28;20212;-81
2021/04/19 08:38:43;;;;;;;21.13;18.97;;;17.70;53.10;;;;;;5033877;28;20212;-82
2021/04/19 08:41:11;;;;;;;18.73;16.60;;;17.70;53.70;;;;;;5039328;28;20530;-82
2021/04/19 08:43:39;;;;;;;21.37;17.93;;;17.80;53.20;;;;;;5032423;28;20212;-82
2021/04/19 08:46:11;;;;;;;16.60;14.93;;;18.10;52.90;;;;;;5029468;28;20213;-82
2021/04/19 08:48:38;;;;;;;18.07;16.27;;;18.20;50.80;;;;;;5036923;28;20306;-81
2021/04/19 08:51:05;;;;;;;18.57;16.57;;;18.10;51.80;;;;;;5034608;28;20228;-81
2021/04/19 08:53:32;;;;;;;17.50;15.60;;;18.00;52.60;;;;;;5032390;28;20226;-81
2021/04/19 08:56:02;;;;;;;17.90;16.10;;;18.00;51.40;;;;;;5040118;28;20218;-81
2021/04/19 08:58:33;;;;;;;16.43;14.60;;;18.10;52.00;;;;;;5032783;28;20254;-81
2021/04/19 09:01:01;;;;;;;17.40;15.60;;;18.40;51.70;;;;;;5040245;28;20191;-81
2021/04/19 09:03:28;;;;;;;17.30;13.03;;;18.60;51.40;;;;;;5035021;28;20215;-81
2021/04/19 09:05:55;;;;;;;14.60;13.03;;;18.80;50.10;;;;;;5021024;28;20234;-81
2021/04/19 09:08:22;;;;;;;17.97;13.80;;;18.90;49.20;;;;;;5024303;28;20248;-81
2021/04/19 09:11:00;;;;;;;16.97;15.10;;;18.90;47.60;;;;;;5029018;28;20226;-81
2021/04/19 09:13:32;;;;;;;16.87;15.13;;;18.80;48.50;;;;;;5021267;28;20255;-81
2021/04/19 09:16:22;;;;;;;16.33;14.63;;;18.80;49.60;;;;;;5021877;28;20207;-82
2021/04/19 09:18:59;;;;;;;14.47;12.97;;;18.70;47.70;;;;;;5019015;28;20303;-81
2021/04/19 09:21:42;;;;;;;13.87;12.47;;;18.50;48.20;;;;;;5023952;28;20222;-81
2021/04/19 09:24:14;;;;;;;13.93;12.43;;;18.50;47.60;;;;;;5016046;28;20282;-81
2021/04/19 09:26:54;;;;;;;14.67;13.27;;;18.50;47.40;;;;;;5014104;28;20223;-81
2021/04/19 09:29:28;;;;;;;16.40;14.70;;;18.50;47.30;;;;;;5005583;28;20226;-81
2021/04/19 09:32:03;;;;;;;15.87;14.27;;;18.50;48.70;;;;;;5018436;28;20223;-81
2021/04/19 09:34:52;;;;;;;16.47;14.73;;;18.70;49.60;;;;;;5040691;28;20214;-81
2021/04/19 09:37:43;;;;;;;15.77;14.17;;;18.90;47.60;;;;;;5032715;28;20220;-82
2021/04/19 09:40:21;;;;;;;15.00;13.40;;;19.10;47.80;;;;;;5032080;28;20273;-81
2021/04/19 09:43:08;;;;;;;14.50;13.00;;;19.40;47.30;;;;;;5019255;28;20211;-81
2021/04/19 09:45:41;;;;;;;13.77;12.37;;;19.60;46.70;;;;;;5032260;28;20215;-82
2021/04/19 09:48:29;;;;;;;14.07;12.67;;;19.80;46.70;;;;;;5035123;28;20266;-81
2021/04/19 09:51:02;;;;;;;13.87;12.50;;;19.80;45.00;;;;;;5022070;28;20212;-82
2021/04/19 09:53:33;;;;;;;13.83;12.53;;;19.60;44.10;;;;;;5033956;28;20728;-81
2021/04/19 09:56:01;;;;;;;14.57;13.07;;;19.40;45.50;;;;;;5024956;28;20561;-82
2021/04/19 09:58:29;;;;;;;14.47;12.80;;;19.20;44.90;;;;;;5032421;28;20257;-82
2021/04/19 10:00:57;;;;;;;12.90;11.60;;;18.70;45.00;;;;;;5034126;28;20302;-82
2021/04/19 10:03:26;;;;;;;13.17;11.87;;;18.50;46.90;;;;;;5037551;28;20302;-81
2021/04/19 10:06:03;;;;;;;12.83;11.63;;;18.70;46.60;;;;;;5034087;28;20314;-81
2021/04/19 10:08:34;;;;;;;13.07;11.77;;;19.00;46.70;;;;;;5046203;28;20242;-82
2021/04/19 10:11:04;;;;;;;14.87;12.70;;;19.20;44.50;;;;;;5038132;28;20695;-82
2021/04/19 10:13:33;;;;;;;13.27;11.97;;;19.30;46.00;;;;;;5025220;28;20226;-81
2021/04/19 10:16:05;;;;;;;13.03;11.73;;;19.30;44.60;;;;;;5024257;28;20301;-82
2021/04/19 10:18:37;;;;;;;13.67;12.27;;;19.40;45.00;;;;;;5053016;28;20248;-81
2021/04/19 10:21:05;;;;;;;13.30;11.77;;;19.30;46.00;;;;;;5028429;28;20269;-81
2021/04/19 10:23:41;;;;;;;13.97;12.57;;;19.10;46.50;;;;;;5010133;28;20219;-82
2021/04/19 10:26:10;;;;;;;13.00;11.53;;;18.80;45.90;;;;;;5031502;28;20869;-81
2021/04/19 10:28:42;;;;;;;12.40;11.10;;;18.40;46.00;;;;;;5042771;28;20231;-82
2021/04/19 10:31:15;;;;;;;13.23;11.83;;;18.50;46.70;;;;;;5015379;28;20318;-83
2021/04/19 10:33:50;;;;;;;11.03;9.90;;;18.50;46.30;;;;;;5018836;28;20214;-82
2021/04/19 10:36:27;;;;;;;10.97;9.93;;;18.30;46.90;;;;;;5017062;28;20750;-82
2021/04/19 10:38:57;;;;;;;9.43;8.43;;;18.10;46.30;;;;;;5037226;28;20214;-82
2021/04/19 10:41:35;;;;;;;12.60;11.30;;;18.20;46.50;;;;;;5029708;28;20218;-80
2021/04/19 10:44:08;;;;;;;12.60;11.40;;;18.70;45.20;;;;;;5011917;28;20221;-82
2021/04/19 10:46:41;;;;;;;13.43;11.23;;;19.10;44.60;;;;;;5023472;28;20303;-81
2021/04/19 10:49:19;;;;;;;11.73;10.60;;;19.60;45.10;;;;;;5000312;28;20243;-81
2021/04/19 10:51:51;;;;;;;13.00;11.70;;;19.70;45.30;;;;;;5008385;28;20211;-80
2021/04/19 10:54:18;;;;;;;14.50;12.53;;;19.50;45.10;;;;;;5024618;28;20221;-80
2021/04/19 10:56:44;;;;;;;13.40;11.80;;;19.10;46.30;;;;;;5046500;28;20215;-82
2021/04/19 10:59:12;;;;;;;11.70;10.50;;;18.70;48.20;;;;;;5046807;28;20309;-81
2021/04/19 11:01:42;;;;;;;13.27;11.87;;;18.40;47.90;;;;;;5042656;28;20229;-81
2021/04/19 11:04:10;;;;;;;10.83;9.80;;;18.40;48.10;;;;;;5037546;28;20225;-81
2021/04/19 11:06:38;;;;;;;12.93;11.53;;;18.60;47.70;;;;;;5037492;28;20210;-81
2021/04/19 11:09:17;;;;;;;10.47;9.47;;;18.80;47.50;;;;;;5037365;28;20223;-81
2021/04/19 11:11:46;;;;;;;10.37;8.87;;;19.20;45.70;;;;;;5038420;28;20222;-80
2021/04/19 11:14:18;;;;;;;9.60;8.70;;;19.20;44.00;;;;;;5010699;28;20207;-80
2021/04/19 11:16:56;;;;;;;9.90;8.93;;;18.80;43.30;;;;;;5048460;28;20223;-81
2021/04/19 11:19:43;;;;;;;9.63;8.63;;;18.40;42.10;;;;;;5026245;28;20326;-81
2021/04/19 11:22:32;;;;;;;11.20;8.67;;;18.00;43.60;;;;;;5022415;28;20511;-81
2021/04/19 11:25:19;;;;;;;8.87;7.97;;;18.20;44.60;;;;;;5047775;28;20234;-80
2021/04/19 11:27:48;;;;;;;10.40;8.30;;;18.90;44.80;;;;;;5036115;28;21064;-82
2021/04/19 11:30:30;;;;;;;10.53;9.53;;;19.50;43.10;;;;;;5032098;28;20233;-82
2021/04/19 11:33:09;;;;;;;12.80;9.43;;;19.80;44.90;;;;;;5051365;28;20208;-82
2021/04/19 11:35:40;;;;;;;10.03;9.03;;;19.80;43.90;;;;;;5020724;28;20547;-81
2021/04/19 11:38:10;;;;;;;10.73;9.67;;;19.40;44.10;;;;;;5022698;28;20243;-81
2021/04/19 11:40:44;;;;;;;9.90;8.90;;;18.90;44.20;;;;;;5028168;28;20218;-81
2021/04/19 11:43:25;;;;;;;10.40;9.30;;;18.60;45.50;;;;;;5040141;28;20242;-81
2021/04/19 11:46:06;;;;;;;9.10;8.20;;;18.40;46.10;;;;;;5022903;28;20225;-81
2021/04/19 11:48:36;;;;;;;9.17;8.23;;;18.70;45.80;;;;;;5053656;28;20241;-82
2021/04/19 11:51:08;;;;;;;7.80;6.90;;;19.20;44.40;;;;;;5040040;28;20641;-81
2021/04/19 11:53:39;;;;;;;8.13;7.33;;;19.40;43.80;;;;;;5040250;28;20217;-81
2021/04/19 11:56:08;;;;;;;7.57;6.87;;;19.80;43.40;;;;;;5038781;28;20218;-81
2021/04/19 11:58:38;;;;;;;7.90;7.10;;;20.10;42.60;;;;;;5040337;28;20249;-81
2021/04/19 12:01:07;;;;;;;7.50;6.80;;;20.20;41.80;;;;;;5038541;28;20222;-81
2021/04/19 12:03:36;;;;;;;7.90;7.20;;;20.20;41.90;;;;;;5030596;28;20221;-80
2021/04/19 12:06:06;;;;;;;9.10;8.30;;;20.20;41.90;;;;;;5047997;28;20426;-82
2021/04/19 12:08:34;;;;;;;8.97;8.07;;;20.30;40.50;;;;;;5043383;28;20293;-81
2021/04/19 12:11:01;;;;;;;7.60;6.63;;;20.50;40.50;;;;;;5049778;28;20206;-81
2021/04/19 12:13:29;;;;;;;7.93;7.13;;;20.80;40.90;;;;;;5078517;28;20220;-81
2021/04/19 12:15:56;;;;;;;6.60;6.00;;;20.90;39.10;;;;;;5059510;28;20301;-81
2021/04/19 12:18:24;;;;;;;6.60;6.00;;;21.00;39.30;;;;;;5029991;28;20215;-81
2021/04/19 12:20:51;;;;;;;9.43;7.87;;;21.10;40.10;;;;;;5015795;28;20226;-81
2021/04/19 12:23:19;;;;;;;7.17;6.57;;;21.20;38.20;;;;;;5033377;28;20297;-82
2021/04/19 12:25:52;;;;;;;8.97;8.07;;;21.10;38.60;;;;;;5030584;28;20273;-81
2021/04/19 12:28:20;;;;;;;9.60;7.30;;;21.10;38.90;;;;;;5024191;28;20321;-81
2021/04/19 12:30:47;;;;;;;10.07;7.67;;;21.00;38.50;;;;;;5036396;28;20273;-81
2021/04/19 12:33:14;;;;;;;8.07;7.33;;;20.70;39.50;;;;;;5038912;28;20211;-80
2021/04/19 12:35:41;;;;;;;7.70;7.00;;;20.40;39.40;;;;;;5044044;28;20215;-82
2021/04/19 12:38:09;;;;;;;6.73;5.63;;;19.90;40.80;;;;;;5053257;28;20218;-81
2021/04/19 12:40:37;;;;;;;8.67;6.60;;;19.50;39.90;;;;;;5039971;28;20242;-81
2021/04/19 12:43:04;;;;;;;8.00;6.47;;;19.20;40.90;;;;;;5049207;28;20597;-81
2021/04/19 12:45:33;;;;;;;8.13;6.57;;;19.10;41.70;;;;;;5053119;28;20646;-81
2021/04/19 12:48:01;;;;;;;7.97;7.27;;;19.20;41.30;;;;;;5059420;28;20265;-82
2021/04/19 12:50:29;;;;;;;7.30;6.60;;;19.50;40.90;;;;;;5038781;28;20397;-81
2021/04/19 12:53:02;;;;;;;7.00;6.30;;;19.90;40.80;;;;;;5056848;28;20746;-81